sensor_id;sensor_type;location;lat;lon;timestamp;P1;durP1;ratioP1;P2;durP2;ratioP2
8636;SDS011;4356;49.068;8.658;2023-02-15T00:01:16;11.60;;;10.07;;
8636;SDS011;4356;49.068;8.658;2023-02-15T00:03:42;11.13;;;10.17;;
8636;SDS011;4356;49.068;8.658;2023-02-15T00:06:08;10.73;;;9.83;;
8636;SDS011;4356;49.068;8.658;2023-02-15T00:08:33;10.80;;;9.80;;
8636;SDS011;4356;49.068;8.658;2023-02-15T00:11:06;9.77;;;8.93;;
8636;SDS011;4356;49.068;8.658;2023-02-15T00:13:33;11.37;;;9.83;;
8636;SDS011;4356;49.068;8.658;2023-02-15T00:16:03;10.43;;;9.43;;
8636;SDS011;4356;49.068;8.658;2023-02-15T00:18:30;10.40;;;9.23;;
8636;SDS011;4356;49.068;8.658;2023-02-15T00:20:56;11.07;;;8.87;;
8636;SDS011;4356;49.068;8.658;2023-02-15T00:23:22;9.67;;;8.67;;
8636;SDS011;4356;49.068;8.658;2023-02-15T00:25:48;10.90;;;9.80;;
8636;SDS011;4356;49.068;8.658;2023-02-15T00:28:14;10.27;;;9.37;;
8636;SDS011;4356;49.068;8.658;2023-02-15T00:30:39;10.57;;;9.50;;
8636;SDS011;4356;49.068;8.658;2023-02-15T00:33:05;12.83;;;9.43;;
8636;SDS011;4356;49.068;8.658;2023-02-15T00:35:30;9.97;;;9.07;;
8636;SDS011;4356;49.068;8.658;2023-02-15T00:37:56;12.43;;;9.87;;
8636;SDS011;4356;49.068;8.658;2023-02-15T00:40:21;9.37;;;8.63;;
8636;SDS011;4356;49.068;8.658;2023-02-15T00:42:47;12.00;;;9.13;;
8636;SDS011;4356;49.068;8.658;2023-02-15T00:45:13;9.90;;;9.10;;
8636;SDS011;4356;49.068;8.658;2023-02-15T00:47:38;11.90;;;9.43;;
8636;SDS011;4356;49.068;8.658;2023-02-15T00:50:04;9.23;;;8.53;;
8636;SDS011;4356;49.068;8.658;2023-02-15T00:52:30;8.60;;;7.90;;
8636;SDS011;4356;49.068;8.658;2023-02-15T00:54:56;11.70;;;8.83;;
8636;SDS011;4356;49.068;8.658;2023-02-15T00:57:22;10.30;;;9.20;;
8636;SDS011;4356;49.068;8.658;2023-02-15T00:59:47;9.60;;;8.60;;
8636;SDS011;4356;49.068;8.658;2023-02-15T01:02:13;8.53;;;7.83;;
8636;SDS011;4356;49.068;8.658;2023-02-15T01:04:38;8.80;;;8.00;;
8636;SDS011;4356;49.068;8.658;2023-02-15T01:07:04;9.53;;;8.53;;
8636;SDS011;4356;49.068;8.658;2023-02-15T01:09:29;9.10;;;8.20;;
8636;SDS011;4356;49.068;8.658;2023-02-15T01:11:58;12.07;;;9.40;;
8636;SDS011;4356;49.068;8.658;2023-02-15T01:14:24;10.23;;;9.33;;
8636;SDS011;4356;49.068;8.658;2023-02-15T01:16:49;10.27;;;9.20;;
8636;SDS011;4356;49.068;8.658;2023-02-15T01:19:15;9.73;;;8.90;;
8636;SDS011;4356;49.068;8.658;2023-02-15T01:21:41;10.60;;;9.70;;
8636;SDS011;4356;49.068;8.658;2023-02-15T01:24:11;10.10;;;9.10;;
8636;SDS011;4356;49.068;8.658;2023-02-15T01:26:38;9.23;;;8.53;;
8636;SDS011;4356;49.068;8.658;2023-02-15T01:29:03;8.60;;;7.97;;
8636;SDS011;4356;49.068;8.658;2023-02-15T01:31:29;9.60;;;8.63;;
8636;SDS011;4356;49.068;8.658;2023-02-15T01:33:54;8.90;;;8.20;;
8636;SDS011;4356;49.068;8.658;2023-02-15T01:36:20;9.90;;;9.03;;
8636;SDS011;4356;49.068;8.658;2023-02-15T01:38:46;8.93;;;8.13;;
8636;SDS011;4356;49.068;8.658;2023-02-15T01:41:12;8.77;;;8.07;;
8636;SDS011;4356;49.068;8.658;2023-02-15T01:43:52;8.77;;;8.13;;
8636;SDS011;4356;49.068;8.658;2023-02-15T01:46:19;8.63;;;7.93;;
8636;SDS011;4356;49.068;8.658;2023-02-15T01:48:48;8.93;;;7.80;;
8636;SDS011;4356;49.068;8.658;2023-02-15T01:51:19;11.50;;;7.87;;
8636;SDS011;4356;49.068;8.658;2023-02-15T01:53:50;8.80;;;8.00;;
8636;SDS011;4356;49.068;8.658;2023-02-15T01:56:20;8.70;;;8.00;;
8636;SDS011;4356;49.068;8.658;2023-02-15T01:58:50;10.37;;;7.67;;
8636;SDS011;4356;49.068;8.658;2023-02-15T02:01:18;8.80;;;8.10;;
8636;SDS011;4356;49.068;8.658;2023-02-15T02:04:02;8.47;;;7.60;;
8636;SDS011;4356;49.068;8.658;2023-02-15T02:06:36;10.17;;;7.83;;
8636;SDS011;4356;49.068;8.658;2023-02-15T02:09:04;9.27;;;8.17;;
8636;SDS011;4356;49.068;8.658;2023-02-15T02:11:29;8.77;;;7.90;;
8636;SDS011;4356;49.068;8.658;2023-02-15T02:13:55;13.47;;;8.00;;
8636;SDS011;4356;49.068;8.658;2023-02-15T02:27:23;7.90;;;7.30;;
8636;SDS011;4356;49.068;8.658;2023-02-15T02:32:53;8.10;;;7.30;;
8636;SDS011;4356;49.068;8.658;2023-02-15T02:35:42;8.27;;;7.47;;
8636;SDS011;4356;49.068;8.658;2023-02-15T02:38:33;7.40;;;6.80;;
8636;SDS011;4356;49.068;8.658;2023-02-15T02:46:58;9.13;;;7.80;;
8636;SDS011;4356;49.068;8.658;2023-02-15T02:49:33;8.40;;;7.70;;
8636;SDS011;4356;49.068;8.658;2023-02-15T02:52:02;9.13;;;7.43;;
8636;SDS011;4356;49.068;8.658;2023-02-15T02:54:31;11.03;;;7.00;;
8636;SDS011;4356;49.068;8.658;2023-02-15T02:57:00;8.07;;;7.20;;
8636;SDS011;4356;49.068;8.658;2023-02-15T02:59:30;8.03;;;7.23;;
8636;SDS011;4356;49.068;8.658;2023-02-15T03:02:10;8.03;;;7.33;;
8636;SDS011;4356;49.068;8.658;2023-02-15T03:04:43;8.27;;;7.47;;
8636;SDS011;4356;49.068;8.658;2023-02-15T03:07:14;8.70;;;7.77;;
8636;SDS011;4356;49.068;8.658;2023-02-15T03:09:47;8.07;;;7.33;;
8636;SDS011;4356;49.068;8.658;2023-02-15T03:12:17;8.53;;;7.27;;
8636;SDS011;4356;49.068;8.658;2023-02-15T03:14:50;8.00;;;7.20;;
8636;SDS011;4356;49.068;8.658;2023-02-15T03:17:20;7.80;;;7.20;;
8636;SDS011;4356;49.068;8.658;2023-02-15T03:19:49;13.33;;;7.60;;
8636;SDS011;4356;49.068;8.658;2023-02-15T03:22:21;7.73;;;7.13;;
8636;SDS011;4356;49.068;8.658;2023-02-15T03:24:56;7.93;;;7.23;;
8636;SDS011;4356;49.068;8.658;2023-02-15T03:27:24;7.57;;;6.97;;
8636;SDS011;4356;49.068;8.658;2023-02-15T03:29:58;7.50;;;6.90;;
8636;SDS011;4356;49.068;8.658;2023-02-15T03:32:25;7.33;;;6.73;;
8636;SDS011;4356;49.068;8.658;2023-02-15T03:34:54;7.17;;;6.67;;
8636;SDS011;4356;49.068;8.658;2023-02-15T03:42:59;7.90;;;7.20;;
8636;SDS011;4356;49.068;8.658;2023-02-15T03:45:30;7.47;;;6.93;;
8636;SDS011;4356;49.068;8.658;2023-02-15T03:47:58;7.47;;;6.87;;
8636;SDS011;4356;49.068;8.658;2023-02-15T03:50:29;7.73;;;7.13;;
8636;SDS011;4356;49.068;8.658;2023-02-15T03:53:17;7.80;;;7.10;;
8636;SDS011;4356;49.068;8.658;2023-02-15T03:55:48;7.67;;;7.07;;
8636;SDS011;4356;49.068;8.658;2023-02-15T03:58:19;7.50;;;6.93;;
8636;SDS011;4356;49.068;8.658;2023-02-15T04:01:04;7.13;;;6.53;;
8636;SDS011;4356;49.068;8.658;2023-02-15T04:04:00;7.87;;;7.17;;
8636;SDS011;4356;49.068;8.658;2023-02-15T04:06:29;7.63;;;6.83;;
8636;SDS011;4356;49.068;8.658;2023-02-15T04:08:54;7.40;;;6.80;;
8636;SDS011;4356;49.068;8.658;2023-02-15T04:11:38;7.67;;;7.07;;
8636;SDS011;4356;49.068;8.658;2023-02-15T04:14:04;9.03;;;8.13;;
8636;SDS011;4356;49.068;8.658;2023-02-15T04:16:49;9.50;;;8.13;;
8636;SDS011;4356;49.068;8.658;2023-02-15T04:19:15;8.90;;;8.10;;
8636;SDS011;4356;49.068;8.658;2023-02-15T04:21:59;9.43;;;8.63;;
8636;SDS011;4356;49.068;8.658;2023-02-15T04:24:43;8.27;;;7.57;;
8636;SDS011;4356;49.068;8.658;2023-02-15T04:27:27;7.10;;;6.60;;
8636;SDS011;4356;49.068;8.658;2023-02-15T04:29:52;6.77;;;6.27;;
8636;SDS011;4356;49.068;8.658;2023-02-15T04:32:18;7.00;;;6.50;;
8636;SDS011;4356;49.068;8.658;2023-02-15T04:34:44;7.53;;;6.93;;
8636;SDS011;4356;49.068;8.658;2023-02-15T04:37:09;7.30;;;6.77;;
8636;SDS011;4356;49.068;8.658;2023-02-15T04:39:35;5.07;;;4.67;;
8636;SDS011;4356;49.068;8.658;2023-02-15T04:42:01;6.03;;;5.63;;
8636;SDS011;4356;49.068;8.658;2023-02-15T04:44:30;6.10;;;5.67;;
8636;SDS011;4356;49.068;8.658;2023-02-15T04:46:55;6.60;;;6.10;;
8636;SDS011;4356;49.068;8.658;2023-02-15T04:49:21;6.13;;;5.63;;
8636;SDS011;4356;49.068;8.658;2023-02-15T04:51:46;7.37;;;6.23;;
8636;SDS011;4356;49.068;8.658;2023-02-15T04:54:12;6.60;;;6.20;;
8636;SDS011;4356;49.068;8.658;2023-02-15T04:56:37;7.27;;;6.77;;
8636;SDS011;4356;49.068;8.658;2023-02-15T04:59:04;6.93;;;6.33;;
8636;SDS011;4356;49.068;8.658;2023-02-15T05:01:29;6.87;;;6.27;;
8636;SDS011;4356;49.068;8.658;2023-02-15T05:03:55;7.93;;;7.30;;
8636;SDS011;4356;49.068;8.658;2023-02-15T05:06:21;7.07;;;6.57;;
8636;SDS011;4356;49.068;8.658;2023-02-15T05:08:47;7.00;;;6.40;;
8636;SDS011;4356;49.068;8.658;2023-02-15T05:11:13;6.97;;;6.47;;
8636;SDS011;4356;49.068;8.658;2023-02-15T05:13:38;6.73;;;6.03;;
8636;SDS011;4356;49.068;8.658;2023-02-15T05:16:04;7.03;;;6.53;;
8636;SDS011;4356;49.068;8.658;2023-02-15T05:18:30;7.70;;;7.10;;
8636;SDS011;4356;49.068;8.658;2023-02-15T05:20:56;6.83;;;6.23;;
8636;SDS011;4356;49.068;8.658;2023-02-15T05:23:21;8.17;;;7.47;;
8636;SDS011;4356;49.068;8.658;2023-02-15T05:25:50;8.37;;;7.67;;
8636;SDS011;4356;49.068;8.658;2023-02-15T05:28:35;7.63;;;7.03;;
8636;SDS011;4356;49.068;8.658;2023-02-15T05:31:03;7.93;;;7.27;;
8636;SDS011;4356;49.068;8.658;2023-02-15T05:33:29;7.33;;;6.83;;
8636;SDS011;4356;49.068;8.658;2023-02-15T05:35:55;7.17;;;6.67;;
8636;SDS011;4356;49.068;8.658;2023-02-15T05:38:20;6.97;;;6.37;;
8636;SDS011;4356;49.068;8.658;2023-02-15T05:40:46;7.50;;;6.90;;
8636;SDS011;4356;49.068;8.658;2023-02-15T05:43:11;7.80;;;7.20;;
8636;SDS011;4356;49.068;8.658;2023-02-15T05:45:37;7.23;;;6.73;;
8636;SDS011;4356;49.068;8.658;2023-02-15T05:48:02;7.77;;;7.07;;
8636;SDS011;4356;49.068;8.658;2023-02-15T05:50:28;7.30;;;6.70;;
8636;SDS011;4356;49.068;8.658;2023-02-15T05:52:54;7.50;;;7.00;;
8636;SDS011;4356;49.068;8.658;2023-02-15T05:55:19;7.57;;;6.97;;
8636;SDS011;4356;49.068;8.658;2023-02-15T05:57:45;7.70;;;7.03;;
8636;SDS011;4356;49.068;8.658;2023-02-15T06:00:11;8.30;;;7.57;;
8636;SDS011;4356;49.068;8.658;2023-02-15T06:02:39;7.53;;;7.00;;
8636;SDS011;4356;49.068;8.658;2023-02-15T06:05:05;7.87;;;7.27;;
8636;SDS011;4356;49.068;8.658;2023-02-15T06:07:31;7.20;;;6.60;;
8636;SDS011;4356;49.068;8.658;2023-02-15T06:09:57;7.60;;;7.00;;
8636;SDS011;4356;49.068;8.658;2023-02-15T06:12:23;7.97;;;7.27;;
8636;SDS011;4356;49.068;8.658;2023-02-15T06:14:49;7.53;;;6.97;;
8636;SDS011;4356;49.068;8.658;2023-02-15T06:17:14;7.17;;;6.67;;
8636;SDS011;4356;49.068;8.658;2023-02-15T06:19:41;8.07;;;7.33;;
8636;SDS011;4356;49.068;8.658;2023-02-15T06:22:07;7.73;;;7.13;;
8636;SDS011;4356;49.068;8.658;2023-02-15T06:24:32;8.13;;;7.47;;
8636;SDS011;4356;49.068;8.658;2023-02-15T06:26:58;8.00;;;7.30;;
8636;SDS011;4356;49.068;8.658;2023-02-15T06:29:24;7.10;;;6.60;;
8636;SDS011;4356;49.068;8.658;2023-02-15T06:31:49;7.47;;;6.87;;
8636;SDS011;4356;49.068;8.658;2023-02-15T06:34:15;8.20;;;7.60;;
8636;SDS011;4356;49.068;8.658;2023-02-15T06:36:40;7.80;;;7.20;;
8636;SDS011;4356;49.068;8.658;2023-02-15T06:39:06;7.70;;;7.10;;
8636;SDS011;4356;49.068;8.658;2023-02-15T06:41:32;7.70;;;7.03;;
8636;SDS011;4356;49.068;8.658;2023-02-15T06:43:57;7.97;;;7.33;;
8636;SDS011;4356;49.068;8.658;2023-02-15T06:46:23;7.57;;;7.00;;
8636;SDS011;4356;49.068;8.658;2023-02-15T06:48:49;8.33;;;7.63;;
8636;SDS011;4356;49.068;8.658;2023-02-15T06:51:14;8.00;;;6.67;;
8636;SDS011;4356;49.068;8.658;2023-02-15T06:53:40;7.33;;;6.73;;
8636;SDS011;4356;49.068;8.658;2023-02-15T06:56:08;7.47;;;6.90;;
8636;SDS011;4356;49.068;8.658;2023-02-15T06:58:36;7.13;;;6.60;;
8636;SDS011;4356;49.068;8.658;2023-02-15T07:01:08;7.60;;;6.90;;
8636;SDS011;4356;49.068;8.658;2023-02-15T07:03:36;7.80;;;7.10;;
8636;SDS011;4356;49.068;8.658;2023-02-15T07:06:05;7.33;;;6.73;;
8636;SDS011;4356;49.068;8.658;2023-02-15T07:08:33;7.83;;;7.17;;
8636;SDS011;4356;49.068;8.658;2023-02-15T07:11:00;7.53;;;6.97;;
8636;SDS011;4356;49.068;8.658;2023-02-15T07:13:46;7.30;;;6.80;;
8636;SDS011;4356;49.068;8.658;2023-02-15T07:16:12;7.80;;;7.20;;
8636;SDS011;4356;49.068;8.658;2023-02-15T07:18:38;6.97;;;6.47;;
8636;SDS011;4356;49.068;8.658;2023-02-15T07:21:05;7.43;;;6.83;;
8636;SDS011;4356;49.068;8.658;2023-02-15T07:23:38;7.23;;;6.73;;
8636;SDS011;4356;49.068;8.658;2023-02-15T07:26:06;7.50;;;7.00;;
8636;SDS011;4356;49.068;8.658;2023-02-15T07:28:33;6.60;;;6.10;;
8636;SDS011;4356;49.068;8.658;2023-02-15T07:31:03;6.63;;;6.20;;
8636;SDS011;4356;49.068;8.658;2023-02-15T07:33:32;6.57;;;6.17;;
8636;SDS011;4356;49.068;8.658;2023-02-15T07:35:59;6.83;;;6.33;;
8636;SDS011;4356;49.068;8.658;2023-02-15T07:38:29;6.33;;;5.93;;
8636;SDS011;4356;49.068;8.658;2023-02-15T07:41:03;7.80;;;7.10;;
8636;SDS011;4356;49.068;8.658;2023-02-15T07:43:32;7.03;;;6.43;;
8636;SDS011;4356;49.068;8.658;2023-02-15T07:46:00;7.53;;;6.93;;
8636;SDS011;4356;49.068;8.658;2023-02-15T07:48:26;7.30;;;6.80;;
8636;SDS011;4356;49.068;8.658;2023-02-15T07:50:52;7.37;;;6.83;;
8636;SDS011;4356;49.068;8.658;2023-02-15T07:53:18;8.03;;;7.40;;
8636;SDS011;4356;49.068;8.658;2023-02-15T07:55:43;7.27;;;6.77;;
8636;SDS011;4356;49.068;8.658;2023-02-15T07:58:09;7.63;;;7.03;;
8636;SDS011;4356;49.068;8.658;2023-02-15T08:00:35;8.00;;;7.40;;
8636;SDS011;4356;49.068;8.658;2023-02-15T08:03:22;8.70;;;8.00;;
8636;SDS011;4356;49.068;8.658;2023-02-15T08:05:57;7.70;;;7.20;;
8636;SDS011;4356;49.068;8.658;2023-02-15T08:08:25;7.93;;;7.30;;
8636;SDS011;4356;49.068;8.658;2023-02-15T08:10:57;8.53;;;7.93;;
8636;SDS011;4356;49.068;8.658;2023-02-15T08:13:45;7.87;;;7.27;;
8636;SDS011;4356;49.068;8.658;2023-02-15T08:16:22;7.50;;;7.00;;
8636;SDS011;4356;49.068;8.658;2023-02-15T08:18:55;8.10;;;7.40;;
8636;SDS011;4356;49.068;8.658;2023-02-15T08:21:22;7.60;;;7.00;;
8636;SDS011;4356;49.068;8.658;2023-02-15T08:23:49;6.77;;;6.27;;
8636;SDS011;4356;49.068;8.658;2023-02-15T08:26:16;7.67;;;7.10;;
8636;SDS011;4356;49.068;8.658;2023-02-15T08:28:42;8.97;;;8.27;;
8636;SDS011;4356;49.068;8.658;2023-02-15T08:31:08;7.57;;;6.97;;
8636;SDS011;4356;49.068;8.658;2023-02-15T08:33:36;7.67;;;7.17;;
8636;SDS011;4356;49.068;8.658;2023-02-15T08:36:05;8.73;;;7.93;;
8636;SDS011;4356;49.068;8.658;2023-02-15T08:38:35;8.10;;;7.50;;
8636;SDS011;4356;49.068;8.658;2023-02-15T08:41:11;7.80;;;7.20;;
8636;SDS011;4356;49.068;8.658;2023-02-15T08:43:37;8.47;;;7.73;;
8636;SDS011;4356;49.068;8.658;2023-02-15T08:46:04;7.87;;;7.27;;
8636;SDS011;4356;49.068;8.658;2023-02-15T08:48:30;8.53;;;7.73;;
8636;SDS011;4356;49.068;8.658;2023-02-15T08:50:55;8.30;;;7.70;;
8636;SDS011;4356;49.068;8.658;2023-02-15T08:53:21;8.47;;;7.67;;
8636;SDS011;4356;49.068;8.658;2023-02-15T08:55:47;8.97;;;8.07;;
8636;SDS011;4356;49.068;8.658;2023-02-15T08:58:20;8.20;;;7.53;;
8636;SDS011;4356;49.068;8.658;2023-02-15T09:00:45;7.50;;;7.00;;
8636;SDS011;4356;49.068;8.658;2023-02-15T09:03:11;8.40;;;7.70;;
8636;SDS011;4356;49.068;8.658;2023-02-15T09:05:36;7.80;;;7.23;;
8636;SDS011;4356;49.068;8.658;2023-02-15T09:08:02;8.20;;;7.50;;
8636;SDS011;4356;49.068;8.658;2023-02-15T09:10:28;7.87;;;7.17;;
8636;SDS011;4356;49.068;8.658;2023-02-15T09:12:53;7.70;;;7.00;;
8636;SDS011;4356;49.068;8.658;2023-02-15T09:15:19;8.40;;;7.70;;
8636;SDS011;4356;49.068;8.658;2023-02-15T09:17:44;7.70;;;7.10;;
8636;SDS011;4356;49.068;8.658;2023-02-15T09:20:10;8.03;;;7.37;;
8636;SDS011;4356;49.068;8.658;2023-02-15T09:22:36;7.60;;;7.07;;
8636;SDS011;4356;49.068;8.658;2023-02-15T09:25:01;7.53;;;7.03;;
8636;SDS011;4356;49.068;8.658;2023-02-15T09:27:27;8.57;;;7.77;;
8636;SDS011;4356;49.068;8.658;2023-02-15T09:29:53;8.40;;;7.70;;
8636;SDS011;4356;49.068;8.658;2023-02-15T09:32:18;7.43;;;6.93;;
8636;SDS011;4356;49.068;8.658;2023-02-15T09:34:44;7.67;;;7.10;;
8636;SDS011;4356;49.068;8.658;2023-02-15T09:37:09;7.77;;;7.17;;
8636;SDS011;4356;49.068;8.658;2023-02-15T09:39:35;7.60;;;6.80;;
8636;SDS011;4356;49.068;8.658;2023-02-15T09:47:49;7.10;;;6.60;;
8636;SDS011;4356;49.068;8.658;2023-02-15T09:50:53;6.73;;;6.23;;
8636;SDS011;4356;49.068;8.658;2023-02-15T09:53:42;6.77;;;6.33;;
8636;SDS011;4356;49.068;8.658;2023-02-15T10:06:53;7.20;;;6.50;;
8636;SDS011;4356;49.068;8.658;2023-02-15T10:12:41;7.97;;;7.20;;
8636;SDS011;4356;49.068;8.658;2023-02-15T10:21:15;6.83;;;6.33;;
8636;SDS011;4356;49.068;8.658;2023-02-15T10:31:57;7.23;;;6.73;;
8636;SDS011;4356;49.068;8.658;2023-02-15T10:34:36;7.03;;;6.53;;
8636;SDS011;4356;49.068;8.658;2023-02-15T10:37:14;7.20;;;6.63;;
8636;SDS011;4356;49.068;8.658;2023-02-15T10:39:55;6.90;;;6.33;;
8636;SDS011;4356;49.068;8.658;2023-02-15T10:45:29;7.90;;;7.40;;
8636;SDS011;4356;49.068;8.658;2023-02-15T11:09:51;7.63;;;6.77;;
8636;SDS011;4356;49.068;8.658;2023-02-15T11:12:26;7.93;;;7.23;;
8636;SDS011;4356;49.068;8.658;2023-02-15T11:14:58;7.73;;;7.17;;
8636;SDS011;4356;49.068;8.658;2023-02-15T11:17:49;8.73;;;8.03;;
8636;SDS011;4356;49.068;8.658;2023-02-15T11:20:26;8.23;;;7.53;;
8636;SDS011;4356;49.068;8.658;2023-02-15T11:22:56;7.00;;;6.53;;
8636;SDS011;4356;49.068;8.658;2023-02-15T11:27:58;7.30;;;6.77;;
8636;SDS011;4356;49.068;8.658;2023-02-15T11:30:32;8.10;;;7.40;;
8636;SDS011;4356;49.068;8.658;2023-02-15T11:33:15;7.03;;;6.60;;
8636;SDS011;4356;49.068;8.658;2023-02-15T11:35:55;7.30;;;6.83;;
8636;SDS011;4356;49.068;8.658;2023-02-15T11:38:27;7.50;;;7.00;;
8636;SDS011;4356;49.068;8.658;2023-02-15T11:46:15;8.10;;;7.50;;
8636;SDS011;4356;49.068;8.658;2023-02-15T11:48:41;7.63;;;7.13;;
8636;SDS011;4356;49.068;8.658;2023-02-15T11:51:14;7.73;;;7.10;;
8636;SDS011;4356;49.068;8.658;2023-02-15T11:53:44;8.17;;;7.47;;
8636;SDS011;4356;49.068;8.658;2023-02-15T11:56:18;7.70;;;7.20;;
8636;SDS011;4356;49.068;8.658;2023-02-15T11:58:47;8.43;;;7.27;;
8636;SDS011;4356;49.068;8.658;2023-02-15T12:01:30;7.40;;;6.70;;
8636;SDS011;4356;49.068;8.658;2023-02-15T12:06:34;7.97;;;7.27;;
8636;SDS011;4356;49.068;8.658;2023-02-15T12:09:14;8.03;;;7.37;;
8636;SDS011;4356;49.068;8.658;2023-02-15T12:14:53;7.57;;;7.07;;
8636;SDS011;4356;49.068;8.658;2023-02-15T12:17:23;7.70;;;7.10;;
8636;SDS011;4356;49.068;8.658;2023-02-15T12:19:55;7.40;;;6.90;;
8636;SDS011;4356;49.068;8.658;2023-02-15T12:22:23;7.67;;;7.17;;
8636;SDS011;4356;49.068;8.658;2023-02-15T12:24:54;8.33;;;7.73;;
8636;SDS011;4356;49.068;8.658;2023-02-15T12:27:28;8.20;;;7.50;;
8636;SDS011;4356;49.068;8.658;2023-02-15T12:30:03;9.10;;;8.40;;
8636;SDS011;4356;49.068;8.658;2023-02-15T12:32:34;9.67;;;8.67;;
8636;SDS011;4356;49.068;8.658;2023-02-15T12:35:06;8.67;;;8.07;;
8636;SDS011;4356;49.068;8.658;2023-02-15T12:37:38;9.67;;;8.87;;
8636;SDS011;4356;49.068;8.658;2023-02-15T12:40:23;8.77;;;8.13;;
8636;SDS011;4356;49.068;8.658;2023-02-15T12:42:52;9.27;;;8.57;;
8636;SDS011;4356;49.068;8.658;2023-02-15T12:45:32;8.50;;;7.90;;
8636;SDS011;4356;49.068;8.658;2023-02-15T12:48:15;9.23;;;8.33;;
8636;SDS011;4356;49.068;8.658;2023-02-15T12:50:43;8.60;;;8.00;;
8636;SDS011;4356;49.068;8.658;2023-02-15T12:55:57;8.70;;;8.10;;
8636;SDS011;4356;49.068;8.658;2023-02-15T12:58:31;9.17;;;8.50;;
8636;SDS011;4356;49.068;8.658;2023-02-15T13:03:56;8.87;;;8.20;;
8636;SDS011;4356;49.068;8.658;2023-02-15T13:06:23;9.83;;;8.93;;
8636;SDS011;4356;49.068;8.658;2023-02-15T13:08:50;9.20;;;8.60;;
8636;SDS011;4356;49.068;8.658;2023-02-15T13:11:22;9.80;;;8.90;;
8636;SDS011;4356;49.068;8.658;2023-02-15T13:16:58;9.57;;;8.87;;
8636;SDS011;4356;49.068;8.658;2023-02-15T13:19:29;9.97;;;9.17;;
8636;SDS011;4356;49.068;8.658;2023-02-15T13:22:18;10.17;;;9.37;;
8636;SDS011;4356;49.068;8.658;2023-02-15T13:24:47;9.83;;;8.93;;
8636;SDS011;4356;49.068;8.658;2023-02-15T13:27:16;9.47;;;8.77;;
8636;SDS011;4356;49.068;8.658;2023-02-15T13:29:46;10.83;;;9.87;;
8636;SDS011;4356;49.068;8.658;2023-02-15T13:32:22;9.97;;;9.23;;
8636;SDS011;4356;49.068;8.658;2023-02-15T13:34:56;9.80;;;9.10;;
8636;SDS011;4356;49.068;8.658;2023-02-15T13:37:30;10.23;;;9.47;;
8636;SDS011;4356;49.068;8.658;2023-02-15T13:40:04;10.53;;;9.73;;
8636;SDS011;4356;49.068;8.658;2023-02-15T13:42:50;9.60;;;8.90;;
8636;SDS011;4356;49.068;8.658;2023-02-15T13:45:39;10.43;;;9.53;;
8636;SDS011;4356;49.068;8.658;2023-02-15T13:51:28;10.83;;;9.90;;
8636;SDS011;4356;49.068;8.658;2023-02-15T13:54:42;10.63;;;9.70;;
8636;SDS011;4356;49.068;8.658;2023-02-15T13:57:38;10.13;;;9.33;;
8636;SDS011;4356;49.068;8.658;2023-02-15T14:11:02;10.17;;;9.47;;
8636;SDS011;4356;49.068;8.658;2023-02-15T14:18:54;10.50;;;9.60;;
8636;SDS011;4356;49.068;8.658;2023-02-15T14:24:24;19.80;;;17.27;;
8636;SDS011;4356;49.068;8.658;2023-02-15T14:29:57;10.93;;;9.97;;
8636;SDS011;4356;49.068;8.658;2023-02-15T14:32:37;12.03;;;10.83;;
8636;SDS011;4356;49.068;8.658;2023-02-15T14:35:16;11.20;;;10.20;;
8636;SDS011;4356;49.068;8.658;2023-02-15T14:37:50;10.80;;;9.97;;
8636;SDS011;4356;49.068;8.658;2023-02-15T14:43:27;10.87;;;9.93;;
8636;SDS011;4356;49.068;8.658;2023-02-15T14:48:38;11.10;;;10.20;;
8636;SDS011;4356;49.068;8.658;2023-02-15T14:51:13;11.83;;;10.93;;
8636;SDS011;4356;49.068;8.658;2023-02-15T14:54:08;11.70;;;10.77;;
8636;SDS011;4356;49.068;8.658;2023-02-15T14:56:35;11.47;;;10.37;;
8636;SDS011;4356;49.068;8.658;2023-02-15T14:59:24;12.00;;;11.00;;
8636;SDS011;4356;49.068;8.658;2023-02-15T15:02:40;11.63;;;10.53;;
8636;SDS011;4356;49.068;8.658;2023-02-15T15:04:42;11.10;;;10.20;;
8636;SDS011;4356;49.068;8.658;2023-02-15T15:10:04;11.33;;;10.47;;
8636;SDS011;4356;49.068;8.658;2023-02-15T15:12:40;11.47;;;10.23;;
8636;SDS011;4356;49.068;8.658;2023-02-15T15:15:32;11.07;;;10.20;;
8636;SDS011;4356;49.068;8.658;2023-02-15T15:20:41;11.43;;;10.43;;
8636;SDS011;4356;49.068;8.658;2023-02-15T15:25:45;11.70;;;10.47;;
8636;SDS011;4356;49.068;8.658;2023-02-15T15:31:03;11.53;;;10.47;;
8636;SDS011;4356;49.068;8.658;2023-02-15T15:34:02;11.70;;;10.63;;
8636;SDS011;4356;49.068;8.658;2023-02-15T15:47:16;11.50;;;10.50;;
8636;SDS011;4356;49.068;8.658;2023-02-15T15:49:54;10.93;;;10.03;;
8636;SDS011;4356;49.068;8.658;2023-02-15T15:52:22;11.70;;;10.60;;
8636;SDS011;4356;49.068;8.658;2023-02-15T15:54:50;10.70;;;9.87;;
8636;SDS011;4356;49.068;8.658;2023-02-15T15:57:23;11.83;;;10.73;;
8636;SDS011;4356;49.068;8.658;2023-02-15T15:59:57;12.47;;;11.47;;
8636;SDS011;4356;49.068;8.658;2023-02-15T16:02:25;16.87;;;14.77;;
8636;SDS011;4356;49.068;8.658;2023-02-15T16:04:51;11.13;;;10.13;;
8636;SDS011;4356;49.068;8.658;2023-02-15T16:10:05;10.33;;;9.53;;
8636;SDS011;4356;49.068;8.658;2023-02-15T16:12:41;11.83;;;10.83;;
8636;SDS011;4356;49.068;8.658;2023-02-15T16:15:14;11.47;;;10.47;;
8636;SDS011;4356;49.068;8.658;2023-02-15T16:17:43;12.17;;;10.93;;
8636;SDS011;4356;49.068;8.658;2023-02-15T16:20:16;11.13;;;10.13;;
8636;SDS011;4356;49.068;8.658;2023-02-15T16:22:49;11.63;;;10.53;;
8636;SDS011;4356;49.068;8.658;2023-02-15T16:25:43;11.93;;;10.80;;
8636;SDS011;4356;49.068;8.658;2023-02-15T16:28:30;12.17;;;11.07;;
8636;SDS011;4356;49.068;8.658;2023-02-15T16:31:04;11.27;;;10.27;;
8636;SDS011;4356;49.068;8.658;2023-02-15T16:33:37;12.13;;;11.13;;
8636;SDS011;4356;49.068;8.658;2023-02-15T16:36:04;11.77;;;10.77;;
8636;SDS011;4356;49.068;8.658;2023-02-15T16:41:08;12.80;;;11.60;;
8636;SDS011;4356;49.068;8.658;2023-02-15T16:43:36;11.03;;;10.13;;
8636;SDS011;4356;49.068;8.658;2023-02-15T16:46:03;11.23;;;10.33;;
8636;SDS011;4356;49.068;8.658;2023-02-15T16:48:33;11.23;;;10.33;;
8636;SDS011;4356;49.068;8.658;2023-02-15T16:51:04;12.33;;;11.23;;
8636;SDS011;4356;49.068;8.658;2023-02-15T16:53:30;11.17;;;10.17;;
8636;SDS011;4356;49.068;8.658;2023-02-15T16:55:59;10.87;;;9.87;;
8636;SDS011;4356;49.068;8.658;2023-02-15T16:58:41;10.53;;;9.70;;
8636;SDS011;4356;49.068;8.658;2023-02-15T17:01:10;12.27;;;11.17;;
8636;SDS011;4356;49.068;8.658;2023-02-15T17:03:38;11.03;;;10.03;;
8636;SDS011;4356;49.068;8.658;2023-02-15T17:06:05;11.30;;;10.30;;
8636;SDS011;4356;49.068;8.658;2023-02-15T17:08:45;10.67;;;9.77;;
8636;SDS011;4356;49.068;8.658;2023-02-15T17:11:18;11.13;;;10.13;;
8636;SDS011;4356;49.068;8.658;2023-02-15T17:16:36;10.93;;;9.80;;
8636;SDS011;4356;49.068;8.658;2023-02-15T17:19:15;10.87;;;10.03;;
8636;SDS011;4356;49.068;8.658;2023-02-15T17:22:01;10.53;;;9.63;;
8636;SDS011;4356;49.068;8.658;2023-02-15T17:24:40;11.67;;;10.57;;
8636;SDS011;4356;49.068;8.658;2023-02-15T17:27:14;10.60;;;9.60;;
8636;SDS011;4356;49.068;8.658;2023-02-15T17:29:43;11.23;;;10.23;;
8636;SDS011;4356;49.068;8.658;2023-02-15T17:32:22;11.43;;;10.40;;
8636;SDS011;4356;49.068;8.658;2023-02-15T17:34:59;11.73;;;10.53;;
8636;SDS011;4356;49.068;8.658;2023-02-15T17:37:54;11.53;;;10.47;;
8636;SDS011;4356;49.068;8.658;2023-02-15T17:40:28;10.90;;;9.97;;
8636;SDS011;4356;49.068;8.658;2023-02-15T17:42:56;10.13;;;9.37;;
8636;SDS011;4356;49.068;8.658;2023-02-15T17:45:22;10.23;;;9.33;;
8636;SDS011;4356;49.068;8.658;2023-02-15T17:47:51;10.87;;;10.07;;
8636;SDS011;4356;49.068;8.658;2023-02-15T17:50:24;10.40;;;9.50;;
8636;SDS011;4356;49.068;8.658;2023-02-15T17:52:52;10.10;;;9.30;;
8636;SDS011;4356;49.068;8.658;2023-02-15T17:55:19;10.37;;;9.57;;
8636;SDS011;4356;49.068;8.658;2023-02-15T18:00:39;10.50;;;9.60;;
8636;SDS011;4356;49.068;8.658;2023-02-15T18:03:28;10.07;;;9.27;;
8636;SDS011;4356;49.068;8.658;2023-02-15T18:06:21;10.70;;;9.80;;
8636;SDS011;4356;49.068;8.658;2023-02-15T18:09:08;11.40;;;10.37;;
8636;SDS011;4356;49.068;8.658;2023-02-15T18:11:56;12.03;;;10.93;;
8636;SDS011;4356;49.068;8.658;2023-02-15T18:14:22;12.17;;;11.17;;
8636;SDS011;4356;49.068;8.658;2023-02-15T18:16:48;11.03;;;10.13;;
8636;SDS011;4356;49.068;8.658;2023-02-15T18:19:15;10.30;;;9.50;;
8636;SDS011;4356;49.068;8.658;2023-02-15T18:21:46;10.10;;;9.20;;
8636;SDS011;4356;49.068;8.658;2023-02-15T18:24:14;10.27;;;9.47;;